sensor_id;sensor_type;location;lat;lon;timestamp;temperature;humidity
7206;DHT22;3644;53.480;10.004;2023-05-16T00:00:52;12.80;99.90
7206;DHT22;3644;53.480;10.004;2023-05-16T00:03:18;12.70;99.90
7206;DHT22;3644;53.480;10.004;2023-05-16T00:05:44;12.60;99.90
7206;DHT22;3644;53.480;10.004;2023-05-16T00:08:10;12.60;99.90
7206;DHT22;3644;53.480;10.004;2023-05-16T00:10:35;12.60;99.90
7206;DHT22;3644;53.480;10.004;2023-05-16T00:13:02;12.50;99.90
7206;DHT22;3644;53.480;10.004;2023-05-16T00:15:28;12.50;99.90
7206;DHT22;3644;53.480;10.004;2023-05-16T00:17:56;12.60;99.90
7206;DHT22;3644;53.480;10.004;2023-05-16T00:20:24;12.50;99.90
7206;DHT22;3644;53.480;10.004;2023-05-16T00:22:51;12.50;99.90
7206;DHT22;3644;53.480;10.004;2023-05-16T00:25:17;12.60;99.90
7206;DHT22;3644;53.480;10.004;2023-05-16T00:27:42;12.50;99.90
7206;DHT22;3644;53.480;10.004;2023-05-16T00:30:08;12.70;99.90
7206;DHT22;3644;53.480;10.004;2023-05-16T00:32:34;12.50;99.90
7206;DHT22;3644;53.480;10.004;2023-05-16T00:35:00;12.60;99.90
7206;DHT22;3644;53.480;10.004;2023-05-16T00:37:26;12.60;99.90
7206;DHT22;3644;53.480;10.004;2023-05-16T00:39:51;12.50;99.90
7206;DHT22;3644;53.480;10.004;2023-05-16T00:42:20;12.40;99.90
7206;DHT22;3644;53.480;10.004;2023-05-16T00:44:49;12.60;99.90
7206;DHT22;3644;53.480;10.004;2023-05-16T00:47:14;12.60;99.90
7206;DHT22;3644;53.480;10.004;2023-05-16T00:49:40;12.70;99.90
7206;DHT22;3644;53.480;10.004;2023-05-16T00:52:06;12.60;99.90
7206;DHT22;3644;53.480;10.004;2023-05-16T00:54:32;12.50;99.90
7206;DHT22;3644;53.480;10.004;2023-05-16T00:56:58;12.40;99.90
7206;DHT22;3644;53.480;10.004;2023-05-16T00:59:24;12.50;99.90
7206;DHT22;3644;53.480;10.004;2023-05-16T01:01:51;12.60;99.90
7206;DHT22;3644;53.480;10.004;2023-05-16T01:04:17;12.60;99.90
7206;DHT22;3644;53.480;10.004;2023-05-16T01:06:44;12.60;99.90
7206;DHT22;3644;53.480;10.004;2023-05-16T01:09:10;12.60;99.90
7206;DHT22;3644;53.480;10.004;2023-05-16T01:12:17;12.70;99.90
7206;DHT22;3644;53.480;10.004;2023-05-16T01:15:07;12.70;99.90
7206;DHT22;3644;53.480;10.004;2023-05-16T01:28:13;13.00;99.90
7206;DHT22;3644;53.480;10.004;2023-05-16T01:30:40;13.00;99.90
7206;DHT22;3644;53.480;10.004;2023-05-16T01:33:06;12.90;99.90
7206;DHT22;3644;53.480;10.004;2023-05-16T01:35:32;12.80;99.90
7206;DHT22;3644;53.480;10.004;2023-05-16T01:38:18;12.80;99.90
7206;DHT22;3644;53.480;10.004;2023-05-16T01:41:03;12.90;99.90
7206;DHT22;3644;53.480;10.004;2023-05-16T01:43:42;12.90;99.90
7206;DHT22;3644;53.480;10.004;2023-05-16T01:46:13;13.10;99.90
7206;DHT22;3644;53.480;10.004;2023-05-16T01:51:38;13.00;99.90
7206;DHT22;3644;53.480;10.004;2023-05-16T01:54:07;12.90;99.90
7206;DHT22;3644;53.480;10.004;2023-05-16T01:56:36;12.80;99.90
7206;DHT22;3644;53.480;10.004;2023-05-16T01:59:03;12.60;99.90
7206;DHT22;3644;53.480;10.004;2023-05-16T02:01:29;12.50;99.90
7206;DHT22;3644;53.480;10.004;2023-05-16T02:03:54;12.60;99.90
7206;DHT22;3644;53.480;10.004;2023-05-16T02:06:21;12.50;99.90
7206;DHT22;3644;53.480;10.004;2023-05-16T02:08:47;12.50;99.90
7206;DHT22;3644;53.480;10.004;2023-05-16T02:11:13;12.20;99.90
7206;DHT22;3644;53.480;10.004;2023-05-16T02:13:38;12.20;99.90
7206;DHT22;3644;53.480;10.004;2023-05-16T02:16:04;12.10;99.90
7206;DHT22;3644;53.480;10.004;2023-05-16T02:18:30;12.20;99.90
7206;DHT22;3644;53.480;10.004;2023-05-16T02:20:56;12.00;99.90
7206;DHT22;3644;53.480;10.004;2023-05-16T02:23:21;12.00;99.90
7206;DHT22;3644;53.480;10.004;2023-05-16T02:25:47;11.90;99.90
7206;DHT22;3644;53.480;10.004;2023-05-16T02:28:12;12.10;99.90
7206;DHT22;3644;53.480;10.004;2023-05-16T02:30:38;12.00;99.90
7206;DHT22;3644;53.480;10.004;2023-05-16T02:33:03;12.00;99.90
7206;DHT22;3644;53.480;10.004;2023-05-16T02:35:29;12.10;99.90
7206;DHT22;3644;53.480;10.004;2023-05-16T02:37:56;12.20;99.90
7206;DHT22;3644;53.480;10.004;2023-05-16T02:40:21;12.20;99.90
7206;DHT22;3644;53.480;10.004;2023-05-16T02:42:47;12.30;99.90
7206;DHT22;3644;53.480;10.004;2023-05-16T02:45:12;12.30;99.90
7206;DHT22;3644;53.480;10.004;2023-05-16T02:47:38;12.20;99.90
7206;DHT22;3644;53.480;10.004;2023-05-16T02:50:04;12.10;99.90
7206;DHT22;3644;53.480;10.004;2023-05-16T02:52:29;12.20;99.90
7206;DHT22;3644;53.480;10.004;2023-05-16T02:54:55;12.30;99.90
7206;DHT22;3644;53.480;10.004;2023-05-16T02:57:20;12.20;99.90
7206;DHT22;3644;53.480;10.004;2023-05-16T02:59:46;12.20;99.90
7206;DHT22;3644;53.480;10.004;2023-05-16T03:02:11;12.20;99.90
7206;DHT22;3644;53.480;10.004;2023-05-16T03:04:37;12.10;99.90
7206;DHT22;3644;53.480;10.004;2023-05-16T03:07:02;11.90;99.90
7206;DHT22;3644;53.480;10.004;2023-05-16T03:09:28;11.90;99.90
7206;DHT22;3644;53.480;10.004;2023-05-16T03:11:53;12.00;99.90
7206;DHT22;3644;53.480;10.004;2023-05-16T03:14:19;12.00;99.90
7206;DHT22;3644;53.480;10.004;2023-05-16T03:16:44;12.00;99.90
7206;DHT22;3644;53.480;10.004;2023-05-16T03:19:10;12.00;99.90
7206;DHT22;3644;53.480;10.004;2023-05-16T03:21:35;12.10;99.90
7206;DHT22;3644;53.480;10.004;2023-05-16T03:24:02;12.10;99.90
7206;DHT22;3644;53.480;10.004;2023-05-16T03:26:32;12.00;99.90
7206;DHT22;3644;53.480;10.004;2023-05-16T03:28:57;12.00;99.90
7206;DHT22;3644;53.480;10.004;2023-05-16T03:31:23;12.10;99.90
7206;DHT22;3644;53.480;10.004;2023-05-16T03:33:49;12.00;99.90
7206;DHT22;3644;53.480;10.004;2023-05-16T03:36:14;12.00;99.90
7206;DHT22;3644;53.480;10.004;2023-05-16T03:38:40;11.90;99.90
7206;DHT22;3644;53.480;10.004;2023-05-16T03:41:05;11.90;99.90
7206;DHT22;3644;53.480;10.004;2023-05-16T03:43:31;11.90;99.90
7206;DHT22;3644;53.480;10.004;2023-05-16T03:45:56;11.90;99.90
7206;DHT22;3644;53.480;10.004;2023-05-16T03:48:22;11.90;99.90
7206;DHT22;3644;53.480;10.004;2023-05-16T03:50:47;12.00;99.90
7206;DHT22;3644;53.480;10.004;2023-05-16T03:53:13;11.90;99.90
7206;DHT22;3644;53.480;10.004;2023-05-16T03:55:38;12.00;99.90
7206;DHT22;3644;53.480;10.004;2023-05-16T03:58:04;12.00;99.90
7206;DHT22;3644;53.480;10.004;2023-05-16T04:00:29;11.80;99.90
7206;DHT22;3644;53.480;10.004;2023-05-16T04:02:55;11.90;99.90
7206;DHT22;3644;53.480;10.004;2023-05-16T04:05:21;12.00;99.90
7206;DHT22;3644;53.480;10.004;2023-05-16T04:07:46;12.00;99.90
7206;DHT22;3644;53.480;10.004;2023-05-16T04:10:12;11.90;99.90
7206;DHT22;3644;53.480;10.004;2023-05-16T04:12:38;11.80;99.90
7206;DHT22;3644;53.480;10.004;2023-05-16T04:15:05;11.80;99.90
7206;DHT22;3644;53.480;10.004;2023-05-16T04:17:31;11.90;99.90
7206;DHT22;3644;53.480;10.004;2023-05-16T04:19:57;12.00;99.90
7206;DHT22;3644;53.480;10.004;2023-05-16T04:22:23;12.20;99.90
7206;DHT22;3644;53.480;10.004;2023-05-16T04:24:48;12.10;99.90
7206;DHT22;3644;53.480;10.004;2023-05-16T04:27:14;12.10;99.90
7206;DHT22;3644;53.480;10.004;2023-05-16T04:29:40;12.30;99.90
7206;DHT22;3644;53.480;10.004;2023-05-16T04:32:06;12.30;99.90
7206;DHT22;3644;53.480;10.004;2023-05-16T04:34:32;12.40;99.90
7206;DHT22;3644;53.480;10.004;2023-05-16T04:37:02;12.30;99.90
7206;DHT22;3644;53.480;10.004;2023-05-16T04:39:29;12.20;99.90
7206;DHT22;3644;53.480;10.004;2023-05-16T04:41:54;12.20;99.90
7206;DHT22;3644;53.480;10.004;2023-05-16T04:44:23;12.20;99.90
7206;DHT22;3644;53.480;10.004;2023-05-16T04:46:49;12.30;99.90
7206;DHT22;3644;53.480;10.004;2023-05-16T04:49:15;12.30;99.90
7206;DHT22;3644;53.480;10.004;2023-05-16T04:51:41;12.20;99.90
7206;DHT22;3644;53.480;10.004;2023-05-16T04:54:06;12.10;99.90
7206;DHT22;3644;53.480;10.004;2023-05-16T04:56:33;12.10;99.90
7206;DHT22;3644;53.480;10.004;2023-05-16T04:58:58;12.20;99.90
7206;DHT22;3644;53.480;10.004;2023-05-16T05:01:24;12.20;99.90
7206;DHT22;3644;53.480;10.004;2023-05-16T05:03:49;12.40;99.90
7206;DHT22;3644;53.480;10.004;2023-05-16T05:06:15;12.30;99.90
7206;DHT22;3644;53.480;10.004;2023-05-16T05:08:40;12.40;99.90
7206;DHT22;3644;53.480;10.004;2023-05-16T05:11:06;12.50;99.90
7206;DHT22;3644;53.480;10.004;2023-05-16T05:13:31;12.50;99.90
7206;DHT22;3644;53.480;10.004;2023-05-16T05:15:57;12.60;99.90
7206;DHT22;3644;53.480;10.004;2023-05-16T05:18:22;12.60;99.90
7206;DHT22;3644;53.480;10.004;2023-05-16T05:20:48;12.50;99.90
7206;DHT22;3644;53.480;10.004;2023-05-16T05:23:14;12.50;99.90
7206;DHT22;3644;53.480;10.004;2023-05-16T05:25:40;12.50;99.90
7206;DHT22;3644;53.480;10.004;2023-05-16T05:28:05;12.60;99.90
7206;DHT22;3644;53.480;10.004;2023-05-16T05:30:31;12.70;99.90
7206;DHT22;3644;53.480;10.004;2023-05-16T05:32:56;12.70;99.90
7206;DHT22;3644;53.480;10.004;2023-05-16T05:35:22;12.70;99.90
7206;DHT22;3644;53.480;10.004;2023-05-16T05:37:47;12.80;99.90
7206;DHT22;3644;53.480;10.004;2023-05-16T05:40:13;12.70;99.90
7206;DHT22;3644;53.480;10.004;2023-05-16T05:42:38;12.70;99.90
7206;DHT22;3644;53.480;10.004;2023-05-16T05:45:04;12.50;99.90
7206;DHT22;3644;53.480;10.004;2023-05-16T05:47:30;12.40;99.90
7206;DHT22;3644;53.480;10.004;2023-05-16T05:49:56;12.50;99.90
7206;DHT22;3644;53.480;10.004;2023-05-16T05:52:22;12.50;99.90
7206;DHT22;3644;53.480;10.004;2023-05-16T05:54:47;12.60;99.90
7206;DHT22;3644;53.480;10.004;2023-05-16T05:57:13;12.70;99.90
7206;DHT22;3644;53.480;10.004;2023-05-16T05:59:38;12.80;99.90
7206;DHT22;3644;53.480;10.004;2023-05-16T06:02:06;13.00;99.90
7206;DHT22;3644;53.480;10.004;2023-05-16T06:04:32;13.10;99.90
7206;DHT22;3644;53.480;10.004;2023-05-16T06:06:57;13.00;99.90
7206;DHT22;3644;53.480;10.004;2023-05-16T06:09:23;13.00;99.90
7206;DHT22;3644;53.480;10.004;2023-05-16T06:11:49;13.10;99.90
7206;DHT22;3644;53.480;10.004;2023-05-16T06:14:14;13.10;99.90
7206;DHT22;3644;53.480;10.004;2023-05-16T06:16:40;13.30;99.90
7206;DHT22;3644;53.480;10.004;2023-05-16T06:19:06;13.40;99.90
7206;DHT22;3644;53.480;10.004;2023-05-16T06:21:32;13.40;99.90
7206;DHT22;3644;53.480;10.004;2023-05-16T06:23:58;13.40;99.90
7206;DHT22;3644;53.480;10.004;2023-05-16T06:26:24;13.30;99.90
7206;DHT22;3644;53.480;10.004;2023-05-16T06:28:49;13.30;99.90
7206;DHT22;3644;53.480;10.004;2023-05-16T06:31:15;13.10;99.90
7206;DHT22;3644;53.480;10.004;2023-05-16T06:33:40;12.90;99.90
7206;DHT22;3644;53.480;10.004;2023-05-16T06:36:06;12.90;99.90
7206;DHT22;3644;53.480;10.004;2023-05-16T06:38:31;13.00;99.90
7206;DHT22;3644;53.480;10.004;2023-05-16T06:40:57;13.10;99.90
7206;DHT22;3644;53.480;10.004;2023-05-16T06:43:22;13.30;99.90
7206;DHT22;3644;53.480;10.004;2023-05-16T06:45:48;13.40;99.90
7206;DHT22;3644;53.480;10.004;2023-05-16T06:48:14;13.60;99.90
7206;DHT22;3644;53.480;10.004;2023-05-16T06:50:40;13.60;99.90
7206;DHT22;3644;53.480;10.004;2023-05-16T06:53:05;13.90;99.90
7206;DHT22;3644;53.480;10.004;2023-05-16T06:55:32;14.00;99.90
7206;DHT22;3644;53.480;10.004;2023-05-16T06:57:57;14.10;99.90
7206;DHT22;3644;53.480;10.004;2023-05-16T07:00:23;14.30;99.90
7206;DHT22;3644;53.480;10.004;2023-05-16T07:02:49;14.30;99.90
7206;DHT22;3644;53.480;10.004;2023-05-16T07:05:14;14.40;99.90
7206;DHT22;3644;53.480;10.004;2023-05-16T07:07:40;14.50;99.90
7206;DHT22;3644;53.480;10.004;2023-05-16T07:10:06;14.00;99.90
7206;DHT22;3644;53.480;10.004;2023-05-16T07:12:31;14.10;99.90
7206;DHT22;3644;53.480;10.004;2023-05-16T07:14:57;14.10;99.90
7206;DHT22;3644;53.480;10.004;2023-05-16T07:17:23;14.20;99.90
7206;DHT22;3644;53.480;10.004;2023-05-16T07:19:49;14.50;99.90
7206;DHT22;3644;53.480;10.004;2023-05-16T07:22:14;14.70;99.90
7206;DHT22;3644;53.480;10.004;2023-05-16T07:24:40;14.60;99.90
7206;DHT22;3644;53.480;10.004;2023-05-16T07:27:05;14.40;99.90
7206;DHT22;3644;53.480;10.004;2023-05-16T07:29:31;14.30;99.90
7206;DHT22;3644;53.480;10.004;2023-05-16T07:31:57;14.40;99.90
7206;DHT22;3644;53.480;10.004;2023-05-16T07:34:22;14.20;99.90
7206;DHT22;3644;53.480;10.004;2023-05-16T07:36:47;14.20;99.90
7206;DHT22;3644;53.480;10.004;2023-05-16T07:39:13;14.60;99.90
7206;DHT22;3644;53.480;10.004;2023-05-16T07:41:39;14.50;99.90
7206;DHT22;3644;53.480;10.004;2023-05-16T07:44:04;14.50;99.90
7206;DHT22;3644;53.480;10.004;2023-05-16T07:46:30;14.50;99.90
7206;DHT22;3644;53.480;10.004;2023-05-16T07:48:55;14.70;99.90
7206;DHT22;3644;53.480;10.004;2023-05-16T07:51:21;15.20;99.90
7206;DHT22;3644;53.480;10.004;2023-05-16T07:53:46;15.10;99.90
7206;DHT22;3644;53.480;10.004;2023-05-16T07:56:12;15.00;99.90
7206;DHT22;3644;53.480;10.004;2023-05-16T07:58:38;14.80;99.90
7206;DHT22;3644;53.480;10.004;2023-05-16T08:01:03;14.80;99.90
7206;DHT22;3644;53.480;10.004;2023-05-16T08:03:29;14.80;99.90
7206;DHT22;3644;53.480;10.004;2023-05-16T08:05:55;15.10;99.90
7206;DHT22;3644;53.480;10.004;2023-05-16T08:08:20;15.20;99.90
7206;DHT22;3644;53.480;10.004;2023-05-16T08:10:46;15.30;99.90
7206;DHT22;3644;53.480;10.004;2023-05-16T08:13:11;15.20;99.90
7206;DHT22;3644;53.480;10.004;2023-05-16T08:15:37;15.20;99.90
7206;DHT22;3644;53.480;10.004;2023-05-16T08:18:02;15.10;99.90
7206;DHT22;3644;53.480;10.004;2023-05-16T08:20:28;15.00;99.90
7206;DHT22;3644;53.480;10.004;2023-05-16T08:22:53;15.00;99.90
7206;DHT22;3644;53.480;10.004;2023-05-16T08:25:19;15.30;99.90
7206;DHT22;3644;53.480;10.004;2023-05-16T08:27:47;15.70;99.90
7206;DHT22;3644;53.480;10.004;2023-05-16T08:30:13;16.00;99.90
7206;DHT22;3644;53.480;10.004;2023-05-16T08:32:38;16.00;99.90
7206;DHT22;3644;53.480;10.004;2023-05-16T08:35:04;15.70;99.90
7206;DHT22;3644;53.480;10.004;2023-05-16T08:37:30;15.50;99.90
7206;DHT22;3644;53.480;10.004;2023-05-16T08:39:56;15.20;99.90
7206;DHT22;3644;53.480;10.004;2023-05-16T08:42:22;15.10;99.90
7206;DHT22;3644;53.480;10.004;2023-05-16T08:44:48;15.20;99.90
7206;DHT22;3644;53.480;10.004;2023-05-16T08:47:20;15.30;99.90
7206;DHT22;3644;53.480;10.004;2023-05-16T08:49:50;15.40;99.90
7206;DHT22;3644;53.480;10.004;2023-05-16T08:52:18;15.30;99.90
7206;DHT22;3644;53.480;10.004;2023-05-16T08:54:45;15.30;99.90
7206;DHT22;3644;53.480;10.004;2023-05-16T08:57:11;15.20;99.90
7206;DHT22;3644;53.480;10.004;2023-05-16T08:59:38;15.00;99.90
7206;DHT22;3644;53.480;10.004;2023-05-16T09:02:04;15.10;99.90
7206;DHT22;3644;53.480;10.004;2023-05-16T09:04:30;15.20;99.90
7206;DHT22;3644;53.480;10.004;2023-05-16T09:06:56;15.00;99.90
7206;DHT22;3644;53.480;10.004;2023-05-16T09:09:22;14.90;99.90
7206;DHT22;3644;53.480;10.004;2023-05-16T09:11:47;14.90;99.90
7206;DHT22;3644;53.480;10.004;2023-05-16T09:14:13;15.10;99.90
7206;DHT22;3644;53.480;10.004;2023-05-16T09:16:39;15.30;99.90
7206;DHT22;3644;53.480;10.004;2023-05-16T09:19:04;15.50;99.90
7206;DHT22;3644;53.480;10.004;2023-05-16T09:21:32;15.70;98.70
7206;DHT22;3644;53.480;10.004;2023-05-16T09:24:08;15.70;94.20
7206;DHT22;3644;53.480;10.004;2023-05-16T09:26:36;16.00;93.60
7206;DHT22;3644;53.480;10.004;2023-05-16T09:29:09;16.10;94.40
7206;DHT22;3644;53.480;10.004;2023-05-16T09:31:36;15.80;93.50
7206;DHT22;3644;53.480;10.004;2023-05-16T09:34:06;15.70;97.20
7206;DHT22;3644;53.480;10.004;2023-05-16T09:36:32;15.80;98.80
7206;DHT22;3644;53.480;10.004;2023-05-16T09:38:57;15.90;97.90
7206;DHT22;3644;53.480;10.004;2023-05-16T09:41:23;16.10;98.60
7206;DHT22;3644;53.480;10.004;2023-05-16T09:43:49;16.20;92.00
7206;DHT22;3644;53.480;10.004;2023-05-16T09:46:15;16.40;89.80
7206;DHT22;3644;53.480;10.004;2023-05-16T09:48:44;16.40;91.50
7206;DHT22;3644;53.480;10.004;2023-05-16T09:51:11;16.10;92.00
7206;DHT22;3644;53.480;10.004;2023-05-16T09:53:38;15.90;96.70
7206;DHT22;3644;53.480;10.004;2023-05-16T09:56:09;15.50;96.80
7206;DHT22;3644;53.480;10.004;2023-05-16T09:58:37;15.50;97.80
7206;DHT22;3644;53.480;10.004;2023-05-16T10:01:04;15.40;98.70
7206;DHT22;3644;53.480;10.004;2023-05-16T10:03:31;15.40;98.30
7206;DHT22;3644;53.480;10.004;2023-05-16T10:05:58;15.20;99.90
7206;DHT22;3644;53.480;10.004;2023-05-16T10:08:25;15.30;99.90
7206;DHT22;3644;53.480;10.004;2023-05-16T10:10:55;15.30;99.90
7206;DHT22;3644;53.480;10.004;2023-05-16T10:13:23;15.50;99.90
7206;DHT22;3644;53.480;10.004;2023-05-16T10:15:49;15.60;99.90
7206;DHT22;3644;53.480;10.004;2023-05-16T10:18:22;15.60;99.90
7206;DHT22;3644;53.480;10.004;2023-05-16T10:20:51;15.90;99.90
7206;DHT22;3644;53.480;10.004;2023-05-16T10:23:18;16.00;96.30
7206;DHT22;3644;53.480;10.004;2023-05-16T10:25:46;15.90;94.00
7206;DHT22;3644;53.480;10.004;2023-05-16T10:28:13;15.80;94.40
7206;DHT22;3644;53.480;10.004;2023-05-16T10:30:44;15.90;96.40
7206;DHT22;3644;53.480;10.004;2023-05-16T10:33:15;16.10;95.60
7206;DHT22;3644;53.480;10.004;2023-05-16T10:35:41;16.20;92.20
7206;DHT22;3644;53.480;10.004;2023-05-16T10:38:08;16.20;91.90
7206;DHT22;3644;53.480;10.004;2023-05-16T10:40:37;16.40;95.30
7206;DHT22;3644;53.480;10.004;2023-05-16T10:43:03;16.50;94.50
7206;DHT22;3644;53.480;10.004;2023-05-16T10:45:30;16.40;95.20
7206;DHT22;3644;53.480;10.004;2023-05-16T10:47:57;16.20;96.20
7206;DHT22;3644;53.480;10.004;2023-05-16T10:53:30;16.10;97.60
7206;DHT22;3644;53.480;10.004;2023-05-16T11:01:31;16.40;98.20
7206;DHT22;3644;53.480;10.004;2023-05-16T11:11:59;15.50;99.90
7206;DHT22;3644;53.480;10.004;2023-05-16T11:14:26;14.80;99.90
7206;DHT22;3644;53.480;10.004;2023-05-16T11:19:46;14.50;99.90
7206;DHT22;3644;53.480;10.004;2023-05-16T11:22:24;14.40;99.90
7206;DHT22;3644;53.480;10.004;2023-05-16T11:25:08;14.20;99.90
7206;DHT22;3644;53.480;10.004;2023-05-16T11:27:46;14.10;99.90
7206;DHT22;3644;53.480;10.004;2023-05-16T11:30:15;14.20;99.90
7206;DHT22;3644;53.480;10.004;2023-05-16T11:32:43;14.10;99.90
7206;DHT22;3644;53.480;10.004;2023-05-16T11:35:14;14.00;99.90
7206;DHT22;3644;53.480;10.004;2023-05-16T11:37:41;14.00;99.90
7206;DHT22;3644;53.480;10.004;2023-05-16T11:40:10;14.00;99.90
7206;DHT22;3644;53.480;10.004;2023-05-16T11:42:38;13.90;99.90
7206;DHT22;3644;53.480;10.004;2023-05-16T11:45:14;14.30;99.90
7206;DHT22;3644;53.480;10.004;2023-05-16T11:47:41;14.40;99.90
7206;DHT22;3644;53.480;10.004;2023-05-16T11:50:17;14.50;99.90
7206;DHT22;3644;53.480;10.004;2023-05-16T11:52:47;14.70;99.90
7206;DHT22;3644;53.480;10.004;2023-05-16T11:55:14;15.00;99.90
7206;DHT22;3644;53.480;10.004;2023-05-16T11:57:41;15.30;99.90
7206;DHT22;3644;53.480;10.004;2023-05-16T12:00:14;15.40;99.90
7206;DHT22;3644;53.480;10.004;2023-05-16T12:02:40;15.50;99.90
7206;DHT22;3644;53.480;10.004;2023-05-16T12:05:08;15.50;99.90
7206;DHT22;3644;53.480;10.004;2023-05-16T12:07:37;15.10;99.90
7206;DHT22;3644;53.480;10.004;2023-05-16T12:10:10;15.10;99.90
7206;DHT22;3644;53.480;10.004;2023-05-16T12:12:37;15.30;99.90
7206;DHT22;3644;53.480;10.004;2023-05-16T12:15:04;15.20;99.90
7206;DHT22;3644;53.480;10.004;2023-05-16T12:17:31;15.10;99.90
7206;DHT22;3644;53.480;10.004;2023-05-16T12:19:57;15.30;99.90
7206;DHT22;3644;53.480;10.004;2023-05-16T12:22:24;15.60;99.90
7206;DHT22;3644;53.480;10.004;2023-05-16T12:24:50;15.80;99.90
7206;DHT22;3644;53.480;10.004;2023-05-16T12:27:23;15.50;99.90
7206;DHT22;3644;53.480;10.004;2023-05-16T12:29:49;15.20;99.90
7206;DHT22;3644;53.480;10.004;2023-05-16T12:32:18;15.50;99.90
7206;DHT22;3644;53.480;10.004;2023-05-16T12:34:52;15.50;99.90
7206;DHT22;3644;53.480;10.004;2023-05-16T12:37:19;15.40;99.90
7206;DHT22;3644;53.480;10.004;2023-05-16T12:39:45;15.40;99.90
7206;DHT22;3644;53.480;10.004;2023-05-16T12:42:12;15.60;99.90
7206;DHT22;3644;53.480;10.004;2023-05-16T12:44:39;15.80;99.90
7206;DHT22;3644;53.480;10.004;2023-05-16T12:47:11;15.90;99.90
7206;DHT22;3644;53.480;10.004;2023-05-16T12:49:43;15.90;99.90
7206;DHT22;3644;53.480;10.004;2023-05-16T12:52:16;15.80;99.90
7206;DHT22;3644;53.480;10.004;2023-05-16T12:54:42;15.90;99.90
7206;DHT22;3644;53.480;10.004;2023-05-16T12:57:07;15.70;99.90
7206;DHT22;3644;53.480;10.004;2023-05-16T12:59:34;15.50;99.90
7206;DHT22;3644;53.480;10.004;2023-05-16T13:01:59;15.60;99.90
7206;DHT22;3644;53.480;10.004;2023-05-16T13:04:25;15.40;99.90
7206;DHT22;3644;53.480;10.004;2023-05-16T13:06:50;15.00;99.90
7206;DHT22;3644;53.480;10.004;2023-05-16T13:09:17;14.60;99.90
7206;DHT22;3644;53.480;10.004;2023-05-16T13:11:43;14.70;99.90
7206;DHT22;3644;53.480;10.004;2023-05-16T13:14:08;14.80;99.90
7206;DHT22;3644;53.480;10.004;2023-05-16T13:16:34;15.20;99.90
7206;DHT22;3644;53.480;10.004;2023-05-16T13:18:59;15.40;99.90
7206;DHT22;3644;53.480;10.004;2023-05-16T13:21:26;15.60;99.90
7206;DHT22;3644;53.480;10.004;2023-05-16T13:23:54;15.80;99.90
7206;DHT22;3644;53.480;10.004;2023-05-16T13:26:19;15.90;99.90
7206;DHT22;3644;53.480;10.004;2023-05-16T13:28:46;15.90;99.90
7206;DHT22;3644;53.480;10.004;2023-05-16T13:31:15;16.00;99.90
7206;DHT22;3644;53.480;10.004;2023-05-16T13:33:41;15.80;99.90
7206;DHT22;3644;53.480;10.004;2023-05-16T13:36:07;15.80;99.90
7206;DHT22;3644;53.480;10.004;2023-05-16T13:38:32;15.70;99.90
7206;DHT22;3644;53.480;10.004;2023-05-16T13:40:58;15.30;99.90
7206;DHT22;3644;53.480;10.004;2023-05-16T13:43:23;14.80;99.90
7206;DHT22;3644;53.480;10.004;2023-05-16T13:45:49;14.90;99.90
7206;DHT22;3644;53.480;10.004;2023-05-16T13:48:14;15.10;99.90
7206;DHT22;3644;53.480;10.004;2023-05-16T13:50:40;15.20;99.90
7206;DHT22;3644;53.480;10.004;2023-05-16T13:53:06;15.50;99.90
7206;DHT22;3644;53.480;10.004;2023-05-16T13:55:33;15.20;99.90
7206;DHT22;3644;53.480;10.004;2023-05-16T13:57:58;15.10;99.90
7206;DHT22;3644;53.480;10.004;2023-05-16T14:00:24;15.10;99.90
7206;DHT22;3644;53.480;10.004;2023-05-16T14:02:51;15.10;99.90
7206;DHT22;3644;53.480;10.004;2023-05-16T14:05:17;14.90;99.90
7206;DHT22;3644;53.480;10.004;2023-05-16T14:07:42;15.00;99.90
7206;DHT22;3644;53.480;10.004;2023-05-16T14:10:08;15.30;99.90
7206;DHT22;3644;53.480;10.004;2023-05-16T14:12:34;15.20;99.90
7206;DHT22;3644;53.480;10.004;2023-05-16T14:14:59;14.90;99.90
7206;DHT22;3644;53.480;10.004;2023-05-16T14:17:25;14.80;99.90
7206;DHT22;3644;53.480;10.004;2023-05-16T14:19:51;14.90;99.90
7206;DHT22;3644;53.480;10.004;2023-05-16T14:22:17;15.00;99.90
7206;DHT22;3644;53.480;10.004;2023-05-16T14:24:43;15.00;99.90
7206;DHT22;3644;53.480;10.004;2023-05-16T14:27:09;15.10;99.90
7206;DHT22;3644;53.480;10.004;2023-05-16T14:29:34;15.50;99.90
7206;DHT22;3644;53.480;10.004;2023-05-16T14:32:00;16.10;99.90
7206;DHT22;3644;53.480;10.004;2023-05-16T14:34:25;16.00;99.90
7206;DHT22;3644;53.480;10.004;2023-05-16T14:36:51;16.10;99.90
7206;DHT22;3644;53.480;10.004;2023-05-16T14:39:17;16.00;99.20
7206;DHT22;3644;53.480;10.004;2023-05-16T14:41:42;16.00;99.90
7206;DHT22;3644;53.480;10.004;2023-05-16T14:44:08;15.50;99.90
7206;DHT22;3644;53.480;10.004;2023-05-16T14:46:34;15.70;99.90
7206;DHT22;3644;53.480;10.004;2023-05-16T14:48:59;15.90;99.90
7206;DHT22;3644;53.480;10.004;2023-05-16T14:51:25;16.10;99.90
7206;DHT22;3644;53.480;10.004;2023-05-16T14:53:50;15.50;99.90
7206;DHT22;3644;53.480;10.004;2023-05-16T14:56:16;15.10;99.90
7206;DHT22;3644;53.480;10.004;2023-05-16T14:58:41;15.10;99.90
7206;DHT22;3644;53.480;10.004;2023-05-16T15:01:07;15.20;99.90
7206;DHT22;3644;53.480;10.004;2023-05-16T15:03:32;15.30;99.90
7206;DHT22;3644;53.480;10.004;2023-05-16T15:05:59;15.50;99.90
7206;DHT22;3644;53.480;10.004;2023-05-16T15:08:24;15.90;99.90
7206;DHT22;3644;53.480;10.004;2023-05-16T15:10:50;16.30;99.90
7206;DHT22;3644;53.480;10.004;2023-05-16T15:13:15;16.40;99.90
7206;DHT22;3644;53.480;10.004;2023-05-16T15:15:41;16.60;99.90
7206;DHT22;3644;53.480;10.004;2023-05-16T15:18:06;16.60;98.70
7206;DHT22;3644;53.480;10.004;2023-05-16T15:20:32;16.50;98.70
7206;DHT22;3644;53.480;10.004;2023-05-16T15:22:58;16.60;99.40
7206;DHT22;3644;53.480;10.004;2023-05-16T15:25:23;16.00;99.90
7206;DHT22;3644;53.480;10.004;2023-05-16T15:27:49;15.90;99.90
7206;DHT22;3644;53.480;10.004;2023-05-16T15:30:15;15.70;99.90
7206;DHT22;3644;53.480;10.004;2023-05-16T15:32:40;15.60;99.90
7206;DHT22;3644;53.480;10.004;2023-05-16T15:35:06;15.50;99.90
7206;DHT22;3644;53.480;10.004;2023-05-16T15:37:32;15.50;99.90
7206;DHT22;3644;53.480;10.004;2023-05-16T15:39:57;15.50;99.90
7206;DHT22;3644;53.480;10.004;2023-05-16T15:42:23;15.30;99.90
7206;DHT22;3644;53.480;10.004;2023-05-16T15:44:48;15.40;99.90
7206;DHT22;3644;53.480;10.004;2023-05-16T15:47:14;15.30;99.90
7206;DHT22;3644;53.480;10.004;2023-05-16T15:49:39;15.10;99.90
7206;DHT22;3644;53.480;10.004;2023-05-16T15:52:05;15.20;99.90
7206;DHT22;3644;53.480;10.004;2023-05-16T15:54:31;15.30;99.90
7206;DHT22;3644;53.480;10.004;2023-05-16T15:56:57;15.40;99.90
7206;DHT22;3644;53.480;10.004;2023-05-16T15:59:22;15.20;99.90
7206;DHT22;3644;53.480;10.004;2023-05-16T16:01:48;15.30;99.90
7206;DHT22;3644;53.480;10.004;2023-05-16T16:04:13;15.20;99.90
7206;DHT22;3644;53.480;10.004;2023-05-16T16:06:39;15.10;99.90
7206;DHT22;3644;53.480;10.004;2023-05-16T16:09:05;15.00;99.90
7206;DHT22;3644;53.480;10.004;2023-05-16T16:11:30;15.50;99.90
7206;DHT22;3644;53.480;10.004;2023-05-16T16:13:56;15.60;99.90